Time;durP1;ratioP1;P1;durP2;ratioP2;P2;SDS_P1;SDS_P2;PMS_P1;PMS_P2;Temp;Humidity;BMP_temperature;BMP_pressure;BME280_temperature;BME280_humidity;BME280_pressure;Samples;Min_cycle;Max_cycle;Signal;HPM_P1;HPM_P2
2021/12/29 00:01:08;;;;;;;4.10;1.40;;;9.80;1.00;10.10;98888.00;;;;5041171;28;20536;-80
2021/12/29 00:03:37;;;;;;;2.60;1.27;;;9.80;1.00;10.10;98894.00;;;;5044259;28;20504;-79
2021/12/29 00:06:08;;;;;;;4.83;1.67;;;9.70;1.00;10.10;98905.00;;;;5031317;28;20505;-81
2021/12/29 00:08:37;;;;;;;4.50;1.60;;;9.80;1.00;10.10;98908.00;;;;5033008;28;20499;-82
2021/12/29 00:11:08;;;;;;;1.83;1.27;;;9.70;1.00;10.10;98909.00;;;;5029430;28;20450;-82
2021/12/29 00:13:38;;;;;;;2.70;1.23;;;9.80;1.00;10.10;98918.00;;;;5024706;28;20670;-82
2021/12/29 00:16:06;;;;;;;2.53;1.20;;;9.80;1.00;10.20;98911.00;;;;5028486;28;20460;-80
2021/12/29 00:18:36;;;;;;;2.73;1.03;;;9.90;1.00;10.20;98916.00;;;;5028465;28;20487;-82
2021/12/29 00:21:07;;;;;;;5.40;2.10;;;9.90;1.00;10.20;98933.00;;;;5030726;28;20456;-83
2021/12/29 00:23:36;;;;;;;4.30;1.40;;;9.90;1.00;10.20;98934.00;;;;5024522;28;20438;-81
2021/12/29 00:26:24;;;;;;;2.50;1.43;;;9.90;1.00;10.20;98940.00;;;;5019924;28;20457;-81
2021/12/29 00:28:58;;;;;;;2.57;1.17;;;9.90;1.00;10.20;98947.00;;;;5033363;28;20484;-79
2021/12/29 00:31:27;;;;;;;3.13;1.83;;;9.90;1.00;10.20;98968.00;;;;5017655;28;20457;-81
2021/12/29 00:34:15;;;;;;;3.03;1.20;;;9.90;1.00;10.20;98946.00;;;;5023596;28;20444;-81
2021/12/29 00:37:02;;;;;;;3.10;1.73;;;9.70;1.00;10.20;98966.00;;;;5035905;28;20444;-79
2021/12/29 00:39:49;;;;;;;2.90;1.40;;;9.90;1.00;10.20;98959.00;;;;5027669;28;20520;-79
2021/12/29 00:42:55;;;;;;;3.03;1.60;;;10.00;1.00;10.30;98967.00;;;;5039175;28;20468;-83
2021/12/29 00:45:45;;;;;;;3.77;1.73;;;10.00;1.00;10.30;98964.00;;;;5037520;28;20441;-80
2021/12/29 00:48:15;;;;;;;3.73;1.60;;;9.90;1.00;10.30;98905.00;;;;5031483;28;20473;-79
2021/12/29 00:50:43;;;;;;;2.37;1.33;;;10.00;1.00;10.30;98979.00;;;;5033080;28;20528;-79
2021/12/29 00:53:12;;;;;;;4.90;1.30;;;10.00;1.00;10.30;98977.00;;;;5040509;28;20520;-80
2021/12/29 00:55:40;;;;;;;3.50;1.30;;;10.00;1.00;10.30;98988.00;;;;5021346;28;20461;-82
2021/12/29 00:58:08;;;;;;;6.23;1.70;;;10.00;1.00;10.30;98996.00;;;;5012591;28;20481;-82
2021/12/29 01:00:40;;;;;;;3.60;1.20;;;10.00;1.00;10.30;99021.00;;;;5015594;28;21044;-79
2021/12/29 01:03:12;;;;;;;5.57;1.80;;;10.00;1.00;10.30;99004.00;;;;5015684;28;20548;-79
2021/12/29 01:05:41;;;;;;;4.00;1.63;;;10.00;1.00;10.30;99021.00;;;;5040266;28;20453;-82
2021/12/29 01:08:10;;;;;;;3.90;1.50;;;10.00;1.00;217.30;161093.00;;;;5037160;28;20485;-80
2021/12/29 01:10:41;;;;;;;2.13;1.30;;;10.00;1.00;10.30;99027.00;;;;5050098;28;20448;-81
2021/12/29 01:13:11;;;;;;;3.27;1.27;;;10.00;1.00;10.30;99040.00;;;;5036715;28;20441;-82
2021/12/29 01:15:57;;;;;;;3.77;1.37;;;10.00;1.00;10.30;68560.00;;;;5018308;28;20449;-81
2021/12/29 01:18:28;;;;;;;3.13;1.50;;;10.10;1.00;10.40;99052.00;;;;5024041;28;20489;-83
2021/12/29 01:20:57;;;;;;;3.13;1.43;;;10.10;1.00;10.40;99058.00;;;;5018083;28;20468;-80
2021/12/29 01:23:26;;;;;;;4.30;1.27;;;10.10;1.00;10.40;99078.00;;;;5015339;28;20627;-80
2021/12/29 01:25:54;;;;;;;3.03;1.43;;;10.00;1.00;217.30;161150.00;;;;5019367;28;20524;-80
2021/12/29 01:28:23;;;;;;;5.20;1.40;;;10.10;1.00;217.30;161130.00;;;;5034510;28;20766;-80
2021/12/29 01:30:52;;;;;;;6.07;1.20;;;10.00;1.00;10.20;68546.00;;;;5038789;28;20488;-80
2021/12/29 01:33:20;;;;;;;1.93;1.10;;;10.00;1.00;10.30;99100.00;;;;5040914;28;20449;-82
2021/12/29 01:35:51;;;;;;;3.17;1.63;;;10.00;1.00;10.30;99100.00;;;;5051168;28;20459;-83
2021/12/29 01:38:19;;;;;;;3.93;1.53;;;10.00;1.00;10.30;99115.00;;;;5046182;28;20480;-80
2021/12/29 01:40:49;;;;;;;3.30;1.30;;;10.00;1.00;10.30;99128.00;;;;5046423;28;20495;-80
2021/12/29 01:43:19;;;;;;;2.93;1.07;;;10.00;1.00;10.30;99132.00;;;;5045562;28;20475;-81
2021/12/29 01:45:48;;;;;;;3.83;1.70;;;10.10;1.00;10.30;99127.00;;;;5030498;28;20547;-80
2021/12/29 01:48:17;;;;;;;3.53;1.40;;;10.10;1.00;10.40;99147.00;;;;5028450;28;20469;-81
2021/12/29 01:50:50;;;;;;;4.47;1.73;;;10.10;1.00;10.30;99151.00;;;;5027958;28;20457;-80
2021/12/29 01:53:26;;;;;;;2.53;1.30;;;10.10;1.00;10.30;99155.00;;;;5024909;28;20888;-81
2021/12/29 01:55:56;;;;;;;3.03;1.03;;;10.10;1.00;10.30;99159.00;;;;5042160;28;20467;-79
2021/12/29 01:58:26;;;;;;;2.90;1.20;;;10.00;1.00;10.30;68546.00;;;;5030547;28;20488;-80
2021/12/29 02:00:58;;;;;;;2.80;1.30;;;10.00;1.00;10.30;99168.00;;;;5025887;28;20445;-80
2021/12/29 02:03:27;;;;;;;2.73;1.00;;;10.00;1.00;10.30;99165.00;;;;5024523;28;20854;-80
2021/12/29 02:05:56;;;;;;;3.20;1.47;;;10.00;1.00;10.30;99168.00;;;;5043211;28;20449;-84
2021/12/29 02:08:26;;;;;;;1.90;1.00;;;10.00;1.00;10.30;99169.00;;;;5028799;28;20526;-84
2021/12/29 02:10:57;;;;;;;2.27;1.20;;;10.00;1.00;10.30;68552.00;;;;5030224;28;20441;-81
2021/12/29 02:13:25;;;;;;;2.03;1.10;;;10.00;1.00;10.30;99183.00;;;;5022398;28;20988;-85
2021/12/29 02:15:53;;;;;;;2.17;1.20;;;10.00;1.00;10.30;99190.00;;;;5023274;28;20457;-81
2021/12/29 02:18:24;;;;;;;3.60;1.40;;;10.00;1.00;10.30;99204.00;;;;5025135;28;20484;-83
2021/12/29 02:20:54;;;;;;;1.87;1.00;;;10.00;1.00;10.30;99190.00;;;;5022200;28;20995;-82
2021/12/29 02:23:30;;;;;;;4.23;1.50;;;10.00;1.00;10.30;99197.00;;;;5024052;28;20472;-83
2021/12/29 02:26:00;;;;;;;1.47;1.10;;;10.00;1.00;10.30;99208.00;;;;5024726;28;20463;-81
2021/12/29 02:28:32;;;;;;;2.67;1.40;;;10.00;1.00;10.30;99217.00;;;;5025593;28;20911;-84
2021/12/29 02:31:01;;;;;;;2.73;1.30;;;10.00;1.00;10.30;99212.00;;;;5031335;28;20465;-86
2021/12/29 02:33:31;;;;;;;4.13;1.50;;;10.00;1.00;10.30;99217.00;;;;5038615;28;20468;-81
2021/12/29 02:36:02;;;;;;;1.90;1.70;;;10.00;1.00;10.30;99230.00;;;;5019946;28;20468;-82
2021/12/29 02:38:34;;;;;;;5.13;1.77;;;10.00;1.00;10.30;99234.00;;;;5020110;28;20894;-82
2021/12/29 02:41:06;;;;;;;3.43;1.63;;;9.90;1.00;10.30;99238.00;;;;5025514;28;20848;-82
2021/12/29 02:43:37;;;;;;;5.13;1.80;;;10.00;1.00;10.30;99261.00;;;;5021392;28;20484;-83
2021/12/29 02:46:11;;;;;;;3.33;1.63;;;10.00;1.00;10.30;68548.00;;;;5019074;28;20449;-83
2021/12/29 02:48:48;;;;;;;3.23;1.83;;;10.00;1.00;10.30;99264.00;;;;5021004;28;20476;-82
2021/12/29 02:51:18;;;;;;;2.90;1.50;;;10.00;1.00;10.30;99276.00;;;;5021235;28;21017;-83
2021/12/29 02:53:47;;;;;;;6.27;2.27;;;10.00;1.00;10.30;99273.00;;;;5031331;28;20468;-83
2021/12/29 02:56:15;;;;;;;4.30;1.97;;;10.00;1.00;10.30;99273.00;;;;5023086;28;20460;-81
2021/12/29 02:58:43;;;;;;;3.73;1.90;;;10.10;1.00;10.40;99276.00;;;;5021162;28;21442;-83
2021/12/29 03:01:15;;;;;;;5.20;2.30;;;10.10;1.00;10.40;99269.00;;;;5022518;28;20506;-83
2021/12/29 03:03:44;;;;;;;4.17;1.77;;;10.10;1.00;10.30;99286.00;;;;5044045;28;20470;-82
2021/12/29 03:06:14;;;;;;;3.57;1.80;;;10.10;1.00;10.40;99293.00;;;;5029709;28;20471;-83
2021/12/29 03:08:44;;;;;;;4.97;1.93;;;10.10;1.00;10.40;99307.00;;;;5038086;28;20477;-82
2021/12/29 03:11:12;;;;;;;6.80;2.20;;;10.10;1.00;10.40;99310.00;;;;5020445;28;20471;-82
2021/12/29 03:13:42;;;;;;;6.67;2.43;;;10.10;1.00;10.30;99291.00;;;;5029674;28;20467;-81
2021/12/29 03:16:12;;;;;;;3.10;2.10;;;10.10;1.00;10.30;99284.00;;;;5038527;28;20441;-81
2021/12/29 03:18:41;;;;;;;4.10;2.67;;;10.00;1.00;10.30;99277.00;;;;5028910;28;20994;-82
2021/12/29 03:21:10;;;;;;;3.10;2.00;;;10.00;1.00;10.30;99275.00;;;;5034460;28;20471;-81
2021/12/29 03:23:39;;;;;;;4.67;2.43;;;9.90;1.00;10.30;99291.00;;;;5044632;28;20477;-81
2021/12/29 03:26:08;;;;;;;2.83;2.10;;;9.90;1.00;10.20;99308.00;;;;5017747;28;20459;-80
2021/12/29 03:28:39;;;;;;;2.23;1.83;;;9.90;1.00;10.30;99315.00;;;;5016759;28;20482;-82
2021/12/29 03:31:10;;;;;;;3.97;1.60;;;10.00;1.00;10.30;99298.00;;;;5017551;28;20889;-83
2021/12/29 03:33:39;;;;;;;5.77;2.20;;;10.10;1.00;10.30;99348.00;;;;5014582;28;20454;-79
2021/12/29 03:36:08;;;;;;;3.87;1.90;;;9.90;1.00;10.30;99345.00;;;;5013439;28;20507;-81
2021/12/29 03:38:39;;;;;;;4.00;1.80;;;10.00;1.00;10.40;99340.00;;;;5017939;28;20487;-82
2021/12/29 03:41:13;;;;;;;3.50;2.53;;;10.10;1.00;10.40;99336.00;;;;5016411;28;20910;-80
2021/12/29 03:43:42;;;;;;;2.73;1.40;;;10.10;1.00;10.40;99322.00;;;;5015650;28;20524;-80
2021/12/29 03:46:12;;;;;;;4.17;2.17;;;10.50;1.00;10.40;99332.00;;;;5012632;28;20454;-82
2021/12/29 03:48:42;;;;;;;2.40;1.90;;;10.10;1.00;10.40;99329.00;;;;5024018;28;20473;-81
2021/12/29 03:51:11;;;;;;;3.90;2.00;;;10.10;1.00;10.30;99300.00;;;;5032143;28;20458;-79
2021/12/29 03:53:40;;;;;;;2.50;1.90;;;10.00;1.00;10.30;99320.00;;;;5028807;28;20477;-80
2021/12/29 03:56:10;;;;;;;3.50;1.70;;;10.00;1.00;10.40;99329.00;;;;5029703;28;20459;-80
2021/12/29 03:58:38;;;;;;;2.70;1.83;;;10.00;1.00;10.40;99326.00;;;;5026042;28;20473;-79
2021/12/29 04:01:11;;;;;;;2.70;1.93;;;10.10;1.00;10.40;99341.00;;;;5033079;28;20460;-79
2021/12/29 04:03:42;;;;;;;3.87;1.80;;;10.20;1.00;10.40;99344.00;;;;5027774;28;20477;-81
2021/12/29 04:06:10;;;;;;;6.17;1.60;;;10.30;1.00;10.40;99331.00;;;;5012395;28;20453;-81
2021/12/29 04:08:39;;;;;;;2.53;1.87;;;10.10;1.00;10.40;99343.00;;;;5014880;28;20473;-78
2021/12/29 04:11:08;;;;;;;3.47;1.87;;;10.10;1.00;217.30;161166.00;;;;5016204;28;20457;-80
2021/12/29 04:13:37;;;;;;;5.27;1.67;;;10.10;1.00;10.40;99348.00;;;;5016857;28;20456;-80
2021/12/29 04:16:06;;;;;;;3.00;1.83;;;10.10;1.00;10.40;99348.00;;;;5038895;28;20500;-80
2021/12/29 04:18:35;;;;;;;3.13;1.70;;;10.20;1.00;10.40;99357.00;;;;5015805;28;20855;-81
2021/12/29 04:21:04;;;;;;;4.17;1.63;;;10.10;1.00;10.50;68581.00;;;;5027037;28;20472;-82
2021/12/29 04:23:35;;;;;;;2.50;1.43;;;10.10;1.00;10.40;99354.00;;;;5017625;28;20995;-81
2021/12/29 04:26:08;;;;;;;4.00;1.30;;;10.10;1.00;10.50;68584.00;;;;5021389;28;20458;-81
2021/12/29 04:28:38;;;;;;;2.20;1.43;;;10.20;1.00;10.50;99371.00;;;;5012648;28;20488;-80
2021/12/29 04:31:09;;;;;;;1.60;1.33;;;10.20;1.00;10.50;99369.00;;;;5010865;28;20466;-82
2021/12/29 04:33:38;;;;;;;2.27;1.30;;;10.20;1.00;10.50;99367.00;;;;5022629;28;20494;-81
2021/12/29 04:36:08;;;;;;;3.00;1.10;;;10.10;1.00;10.50;99383.00;;;;5026607;28;20457;-80
2021/12/29 04:38:36;;;;;;;2.90;1.50;;;10.20;1.00;10.50;68578.00;;;;5017010;28;20496;-80
2021/12/29 04:41:05;;;;;;;2.00;1.43;;;10.20;1.00;10.40;99383.00;;;;5013868;28;20463;-81
2021/12/29 04:43:33;;;;;;;1.60;1.40;;;10.00;1.00;10.40;99398.00;;;;5016394;28;20473;-81
2021/12/29 04:46:04;;;;;;;2.03;1.50;;;10.10;1.00;10.40;99405.00;;;;5015531;28;20465;-81
2021/12/29 04:48:38;;;;;;;2.60;1.10;;;10.10;1.00;10.40;99407.00;;;;5016918;28;20530;-81
2021/12/29 04:51:14;;;;;;;1.30;0.90;;;10.10;1.00;10.40;99409.00;;;;5012721;28;20456;-81
2021/12/29 04:53:43;;;;;;;2.40;1.03;;;10.10;1.00;10.30;99406.00;;;;5021426;28;20441;-80
2021/12/29 04:56:11;;;;;;;1.73;0.90;;;10.00;1.00;10.30;99422.00;;;;5027709;28;21044;-79
2021/12/29 04:58:40;;;;;;;2.00;0.97;;;10.00;1.00;10.30;99428.00;;;;5037668;28;20485;-82
2021/12/29 05:01:10;;;;;;;1.90;1.00;;;10.00;1.00;10.40;99425.00;;;;5036207;28;20464;-80
2021/12/29 05:03:41;;;;;;;1.90;1.10;;;10.00;1.00;10.30;99422.00;;;;5025275;28;20480;-80
2021/12/29 05:08:55;;;;;;;1.83;0.90;;;10.00;1.00;10.30;99450.00;;;;5024798;28;20480;-82
2021/12/29 05:11:23;;;;;;;1.60;0.80;;;10.00;1.00;10.30;99450.00;;;;5023733;28;20453;-82
2021/12/29 05:13:51;;;;;;;2.60;1.00;;;10.00;1.00;10.30;99450.00;;;;5031991;28;20442;-81
2021/12/29 05:16:22;;;;;;;1.63;1.30;;;10.00;1.00;10.30;99439.00;;;;5036229;28;20529;-81
2021/12/29 05:18:50;;;;;;;1.50;1.00;;;10.00;1.00;10.30;99435.00;;;;5036212;28;20537;-85
2021/12/29 05:21:19;;;;;;;1.90;1.13;;;10.00;1.00;10.30;99444.00;;;;5050817;28;20463;-83
2021/12/29 05:23:47;;;;;;;1.50;1.00;;;10.00;1.00;10.30;99443.00;;;;5033605;28;20991;-82
2021/12/29 05:26:15;;;;;;;1.90;1.20;;;10.00;1.00;10.30;99468.00;;;;5032307;28;20449;-83
2021/12/29 05:28:44;;;;;;;5.67;1.83;;;10.20;1.00;10.30;99465.00;;;;5034380;28;20465;-86
2021/12/29 05:31:12;;;;;;;2.20;1.10;;;10.00;1.00;10.40;99469.00;;;;5045966;28;20460;-84
2021/12/29 05:33:42;;;;;;;2.23;1.00;;;10.00;1.00;10.40;99344.00;;;;5044858;28;20449;-84
2021/12/29 05:36:11;;;;;;;1.50;0.90;;;10.10;1.00;10.40;68556.00;;;;5045290;28;20522;-84
2021/12/29 05:38:39;;;;;;;1.50;1.00;;;10.10;1.00;10.40;99479.00;;;;5041829;28;20551;-81
2021/12/29 05:41:07;;;;;;;1.60;1.10;;;10.10;1.00;10.50;99481.00;;;;5033324;28;20448;-81
2021/12/29 05:43:36;;;;;;;1.50;0.90;;;10.20;1.00;10.50;99468.00;;;;5033714;28;20437;-82
2021/12/29 05:46:04;;;;;;;1.43;1.00;;;10.20;1.00;10.50;99471.00;;;;5043361;28;20449;-83
2021/12/29 05:48:33;;;;;;;2.17;1.10;;;10.20;1.00;10.50;99487.00;;;;5029143;28;20475;-83
2021/12/29 05:51:04;;;;;;;1.97;1.10;;;10.20;1.00;10.50;99500.00;;;;5045024;28;20467;-88
2021/12/29 05:53:32;;;;;;;1.93;1.10;;;10.20;1.00;10.50;99500.00;;;;5045233;28;20524;-87
2021/12/29 05:56:01;;;;;;;2.67;0.97;;;10.20;1.00;10.50;99492.00;;;;5046955;28;20451;-86
2021/12/29 05:58:29;;;;;;;1.40;0.90;;;10.20;1.00;10.50;99506.00;;;;5045293;28;20465;-87
2021/12/29 06:00:57;;;;;;;1.77;1.10;;;10.20;1.00;10.50;99500.00;;;;5043885;28;20438;-87
2021/12/29 06:03:26;;;;;;;1.70;1.00;;;10.20;1.00;10.60;99526.00;;;;5050716;28;20458;-82
2021/12/29 06:05:54;;;;;;;1.80;1.23;;;10.30;1.00;10.60;99518.00;;;;5057007;28;20532;-83
2021/12/29 06:08:24;;;;;;;2.83;1.20;;;10.60;1.00;10.60;99530.00;;;;5053044;28;20484;-85
2021/12/29 06:10:52;;;;;;;1.90;1.20;;;10.30;1.00;10.60;99520.00;;;;5055132;28;20461;-82
2021/12/29 06:13:21;;;;;;;2.10;1.77;;;10.30;1.00;10.60;99500.00;;;;5045732;28;20539;-80
2021/12/29 06:15:49;;;;;;;1.63;1.30;;;10.30;1.00;10.60;99523.00;;;;5038732;28;20807;-80
2021/12/29 06:18:17;;;;;;;2.10;1.30;;;10.30;1.00;10.60;99510.00;;;;5052085;28;21059;-81
2021/12/29 06:20:46;;;;;;;3.13;1.40;;;10.30;1.00;217.30;161283.00;;;;5038978;28;20936;-80
2021/12/29 06:23:14;;;;;;;2.33;1.33;;;10.40;1.00;10.70;99528.00;;;;5030888;28;21488;-80
2021/12/29 06:25:44;;;;;;;2.60;2.23;;;10.40;1.00;10.70;99526.00;;;;5022830;28;21057;-80
2021/12/29 06:28:12;;;;;;;4.13;1.87;;;10.40;1.00;10.70;99538.00;;;;5025541;28;20518;-79
2021/12/29 06:30:46;;;;;;;3.23;1.73;;;10.30;1.00;10.70;99541.00;;;;5025621;28;20458;-82
2021/12/29 06:33:15;;;;;;;2.47;1.50;;;10.40;1.00;10.70;99547.00;;;;5022056;28;20471;-82
2021/12/29 06:35:43;;;;;;;2.63;1.50;;;10.40;1.00;10.70;99545.00;;;;5023613;28;20457;-80
2021/12/29 06:38:12;;;;;;;2.50;1.80;;;10.40;1.00;10.70;99553.00;;;;5022269;28;20474;-82
2021/12/29 06:40:40;;;;;;;2.90;1.40;;;10.30;1.00;52.70;161277.00;;;;5023179;28;21008;-82
2021/12/29 06:43:10;;;;;;;2.93;1.53;;;10.30;1.00;10.70;99557.00;;;;5041895;28;20489;-81
2021/12/29 06:45:38;;;;;;;2.50;1.40;;;10.30;1.00;10.70;99568.00;;;;5023287;28;20469;-81
2021/12/29 06:48:07;;;;;;;3.83;1.50;;;10.30;1.00;10.70;99573.00;;;;5031017;28;20474;-81
2021/12/29 06:50:36;;;;;;;2.50;1.50;;;10.30;1.00;10.70;99580.00;;;;5034452;28;20453;-80
2021/12/29 06:53:04;;;;;;;4.23;1.60;;;10.30;1.00;10.60;99574.00;;;;5035685;28;20472;-80
2021/12/29 06:55:33;;;;;;;2.00;1.57;;;10.30;1.00;10.70;99596.00;;;;5035331;28;20458;-80
2021/12/29 06:58:01;;;;;;;7.07;2.43;;;10.30;1.00;10.70;99598.00;;;;5024330;28;20579;-82
2021/12/29 07:00:32;;;;;;;5.13;2.13;;;10.30;1.00;10.70;99597.00;;;;5025192;28;20461;-80
2021/12/29 07:03:02;;;;;;;1.80;1.50;;;10.30;1.00;10.70;99603.00;;;;5025846;28;20453;-81
2021/12/29 07:05:30;;;;;;;5.30;1.80;;;10.40;1.00;10.70;99595.00;;;;5037408;28;20479;-82
2021/12/29 07:07:59;;;;;;;4.10;1.60;;;10.40;1.00;10.70;99605.00;;;;5025329;28;20560;-81
2021/12/29 07:10:27;;;;;;;3.33;2.20;;;10.50;1.00;10.60;99620.00;;;;5015618;28;20453;-80
2021/12/29 07:12:56;;;;;;;3.20;1.77;;;10.30;1.00;10.70;99614.00;;;;5020332;28;20489;-81
2021/12/29 07:15:24;;;;;;;2.47;1.63;;;10.40;1.00;10.70;99627.00;;;;5025526;28;20472;-80
2021/12/29 07:17:54;;;;;;;4.13;2.43;;;10.30;1.00;10.60;99625.00;;;;5025207;28;20502;-81
2021/12/29 07:20:22;;;;;;;3.27;1.80;;;10.30;1.00;10.70;99637.00;;;;5025582;28;20462;-80
2021/12/29 07:22:50;;;;;;;2.83;1.80;;;10.30;1.00;10.70;99630.00;;;;5017472;28;20461;-79
2021/12/29 07:25:19;;;;;;;4.77;2.37;;;10.30;1.00;10.70;99628.00;;;;5014836;28;20499;-80
2021/12/29 07:27:47;;;;;;;2.50;2.20;;;10.30;1.00;10.70;99621.00;;;;5019631;28;20481;-80
2021/12/29 07:30:15;;;;;;;4.30;1.90;;;10.30;1.00;10.60;99634.00;;;;5023711;28;20461;-79
2021/12/29 07:32:44;;;;;;;2.93;1.83;;;10.30;1.00;10.60;99630.00;;;;5031941;28;20458;-80
2021/12/29 07:35:14;;;;;;;3.13;2.10;;;10.20;1.00;10.70;99647.00;;;;5034396;28;20473;-80
2021/12/29 07:37:42;;;;;;;2.77;2.40;;;10.30;1.00;10.70;99647.00;;;;5032257;28;20476;-80
2021/12/29 07:40:11;;;;;;;3.87;1.63;;;10.30;1.00;10.80;99649.00;;;;5036772;28;20457;-80
2021/12/29 07:42:41;;;;;;;4.13;2.50;;;10.30;1.00;10.70;99660.00;;;;5037207;28;20449;-80
2021/12/29 07:45:11;;;;;;;3.60;2.53;;;10.40;1.00;10.80;99647.00;;;;5045673;28;20481;-79
2021/12/29 07:47:46;;;;;;;5.03;2.00;;;10.40;1.00;10.80;99664.00;;;;5036714;28;20497;-79
2021/12/29 07:50:19;;;;;;;4.17;2.00;;;10.40;1.00;10.80;99686.00;;;;5037696;28;20472;-79
2021/12/29 07:53:03;;;;;;;3.67;2.00;;;10.40;1.00;10.80;99680.00;;;;5054242;28;20531;-79
2021/12/29 07:55:32;;;;;;;2.60;1.60;;;10.50;1.00;10.80;99684.00;;;;5048604;28;20548;-81
2021/12/29 07:58:01;;;;;;;2.93;2.00;;;10.50;1.00;10.90;99687.00;;;;5032166;28;20473;-80
2021/12/29 08:00:30;;;;;;;3.40;1.80;;;10.50;1.00;10.90;99689.00;;;;5031130;28;20484;-79
2021/12/29 08:02:58;;;;;;;2.20;2.00;;;10.60;1.00;10.90;99704.00;;;;5027740;28;20563;-79
2021/12/29 08:05:28;;;;;;;2.77;1.80;;;10.60;1.00;10.90;99696.00;;;;5028563;28;20507;-82
2021/12/29 08:07:57;;;;;;;3.50;1.90;;;10.50;1.00;10.90;99707.00;;;;5029778;28;20476;-82
2021/12/29 08:10:25;;;;;;;4.53;1.80;;;10.50;1.00;10.90;99692.00;;;;5033002;28;20446;-80
2021/12/29 08:12:54;;;;;;;2.67;1.80;;;10.50;1.00;10.90;99694.00;;;;5045254;28;20444;-79
2021/12/29 08:15:22;;;;;;;4.80;2.40;;;10.50;1.00;10.90;99708.00;;;;5043937;28;20438;-79
2021/12/29 08:17:51;;;;;;;2.30;1.90;;;10.70;1.00;10.90;99714.00;;;;5048119;28;20464;-79
2021/12/29 08:20:21;;;;;;;2.40;2.07;;;10.60;1.00;11.00;99701.00;;;;5043377;28;20433;-81
2021/12/29 08:22:52;;;;;;;3.30;2.10;;;10.60;1.00;11.10;99701.00;;;;5044108;28;20492;-80
2021/12/29 08:25:22;;;;;;;4.00;2.20;;;10.70;1.00;11.10;99698.00;;;;5042671;28;20475;-80
2021/12/29 08:27:50;;;;;;;5.20;2.40;;;10.90;1.00;11.10;99697.00;;;;5043052;28;20515;-82
2021/12/29 08:30:19;;;;;;;2.93;2.30;;;10.80;1.00;11.10;99708.00;;;;5032164;28;20454;-81
2021/12/29 08:32:47;;;;;;;2.60;2.10;;;10.70;1.00;11.10;99711.00;;;;5033101;28;20454;-82
2021/12/29 08:35:16;;;;;;;4.00;2.10;;;10.70;1.00;11.20;99706.00;;;;5044962;28;20492;-82
2021/12/29 08:37:45;;;;;;;4.53;2.27;;;10.80;1.00;11.30;99708.00;;;;5039082;28;20465;-80
2021/12/29 08:40:17;;;;;;;4.53;3.43;;;10.80;1.00;11.20;99714.00;;;;5047135;28;20455;-83
2021/12/29 08:42:47;;;;;;;7.30;2.30;;;10.80;1.00;11.30;99716.00;;;;5047317;28;20444;-81
2021/12/29 08:45:21;;;;;;;6.03;2.40;;;10.80;1.00;11.30;99726.00;;;;5038991;28;20883;-80
2021/12/29 08:47:52;;;;;;;3.27;2.43;;;10.90;1.00;217.30;161541.00;;;;5044041;28;20482;-81
2021/12/29 08:50:21;;;;;;;4.30;2.63;;;10.90;1.00;11.20;99721.00;;;;5034386;28;20531;-80
2021/12/29 08:52:50;;;;;;;5.53;2.37;;;10.90;1.00;11.30;99728.00;;;;5032953;28;20930;-79
2021/12/29 08:55:19;;;;;;;3.93;2.37;;;10.90;1.00;11.40;99715.00;;;;5032807;28;20444;-81
2021/12/29 08:57:48;;;;;;;3.20;1.97;;;11.00;1.00;11.40;99725.00;;;;5046862;28;20520;-86
2021/12/29 09:00:18;;;;;;;5.10;2.30;;;11.00;1.00;11.40;99736.00;;;;5047670;28;20504;-88
2021/12/29 09:02:48;;;;;;;3.67;2.40;;;11.00;1.00;11.40;99721.00;;;;5051366;28;20463;-80
2021/12/29 09:05:17;;;;;;;2.70;2.27;;;10.90;1.00;11.30;99737.00;;;;5065831;28;20452;-83
2021/12/29 09:07:49;;;;;;;4.03;2.73;;;10.90;1.00;11.30;99735.00;;;;5056135;28;20476;-81
2021/12/29 09:10:20;;;;;;;4.47;2.60;;;10.90;1.00;11.40;99736.00;;;;5050057;28;20436;-81
2021/12/29 09:12:55;;;;;;;3.70;2.67;;;10.90;1.00;11.30;99746.00;;;;5050107;28;20444;-79
2021/12/29 09:15:24;;;;;;;4.13;2.80;;;10.90;1.00;11.30;99743.00;;;;5051841;28;20524;-81
2021/12/29 09:17:53;;;;;;;5.70;3.13;;;10.90;1.00;11.40;99750.00;;;;5063967;28;20480;-82
2021/12/29 09:20:27;;;;;;;3.30;2.90;;;10.90;1.00;11.30;99748.00;;;;5051158;28;20476;-80
2021/12/29 09:22:59;;;;;;;3.73;2.97;;;10.90;1.00;11.30;99755.00;;;;5025275;28;21526;-81
2021/12/29 09:25:30;;;;;;;5.10;3.10;;;10.90;1.00;11.40;99762.00;;;;5029149;28;20496;-79
2021/12/29 09:27:59;;;;;;;4.10;3.37;;;11.00;1.00;11.30;99767.00;;;;5046380;28;20489;-81
2021/12/29 09:30:32;;;;;;;4.33;2.90;;;10.90;1.00;11.30;99766.00;;;;5027910;28;20465;-81
2021/12/29 09:33:01;;;;;;;3.93;2.93;;;10.90;1.00;11.20;99653.00;;;;5026398;28;20456;-83
2021/12/29 09:35:32;;;;;;;6.07;3.30;;;10.90;1.00;11.30;68759.00;;;;5025730;28;20503;-78
2021/12/29 09:38:05;;;;;;;5.37;3.00;;;10.80;1.00;11.30;99772.00;;;;5028078;28;20496;-78
2021/12/29 09:40:37;;;;;;;4.33;2.30;;;10.90;1.00;11.20;99760.00;;;;5032805;28;20465;-80
2021/12/29 09:43:07;;;;;;;4.03;2.23;;;10.80;1.00;11.20;99756.00;;;;5050466;28;20505;-81
2021/12/29 09:45:36;;;;;;;5.00;2.90;;;10.90;1.00;11.20;99756.00;;;;5034276;28;20464;-80
2021/12/29 09:48:05;;;;;;;5.67;2.83;;;10.90;1.00;11.30;99752.00;;;;5026022;28;20485;-79
2021/12/29 09:50:35;;;;;;;4.83;3.10;;;10.90;1.00;11.20;99773.00;;;;5042802;28;20500;-82
2021/12/29 09:53:04;;;;;;;5.13;2.60;;;10.80;1.00;11.20;99765.00;;;;5030651;28;20454;-82
2021/12/29 09:55:35;;;;;;;5.37;2.53;;;10.80;1.00;11.30;99765.00;;;;5029458;28;20468;-81
2021/12/29 09:58:05;;;;;;;4.37;2.70;;;10.80;1.00;11.20;99734.00;;;;5028355;28;20552;-81
2021/12/29 10:00:39;;;;;;;6.43;3.17;;;10.80;1.00;11.30;99764.00;;;;5027834;28;20464;-81
2021/12/29 10:03:13;;;;;;;6.07;2.30;;;10.90;1.00;11.40;99765.00;;;;5035906;28;20524;-81
2021/12/29 10:05:44;;;;;;;3.90;2.63;;;10.90;1.00;11.40;99774.00;;;;5046714;28;20459;-81
2021/12/29 10:08:17;;;;;;;8.50;4.67;;;10.90;1.00;11.40;99773.00;;;;5034852;28;20492;-81
2021/12/29 10:10:51;;;;;;;14.03;3.00;;;11.00;1.00;11.60;99771.00;;;;5030173;28;20539;-83
2021/12/29 10:13:20;;;;;;;4.97;2.57;;;11.10;1.00;11.60;99788.00;;;;5030116;28;20467;-82
2021/12/29 10:15:54;;;;;;;5.47;2.33;;;11.10;1.00;11.60;99775.00;;;;5044312;28;21702;-80
2021/12/29 10:18:26;;;;;;;5.07;2.70;;;11.30;1.00;11.80;99785.00;;;;5031729;28;20488;-80
2021/12/29 10:20:59;;;;;;;5.60;3.03;;;11.30;1.00;11.90;99774.00;;;;5032962;28;20454;-81
2021/12/29 10:23:31;;;;;;;6.63;3.40;;;11.50;1.00;12.10;99765.00;;;;5034772;28;20449;-84
2021/12/29 10:26:08;;;;;;;5.57;2.70;;;11.60;1.00;12.10;99765.00;;;;5037406;28;20460;-81
2021/12/29 10:28:38;;;;;;;5.90;2.70;;;11.70;1.00;12.00;99769.00;;;;5049019;28;20483;-85
2021/12/29 10:31:14;;;;;;;4.07;2.93;;;11.70;1.00;12.10;99764.00;;;;5034550;28;20557;-83
2021/12/29 10:33:50;;;;;;;4.03;2.70;;;11.70;1.00;12.20;99761.00;;;;5044732;28;20456;-80
2021/12/29 10:36:22;;;;;;;6.10;2.83;;;11.80;1.00;12.40;99766.00;;;;5030952;28;20533;-81
2021/12/29 10:38:58;;;;;;;3.83;2.47;;;11.90;1.00;12.30;99764.00;;;;5024599;28;20880;-80
2021/12/29 10:41:35;;;;;;;5.67;3.00;;;11.90;1.00;12.30;99767.00;;;;5023862;28;20537;-81
2021/12/29 10:44:06;;;;;;;5.90;3.30;;;11.90;1.00;12.30;99778.00;;;;5021703;28;20567;-82
2021/12/29 10:46:35;;;;;;;5.80;2.50;;;11.90;1.00;12.30;99780.00;;;;5019550;28;20453;-82
2021/12/29 10:49:08;;;;;;;4.50;2.60;;;11.80;1.00;12.30;99770.00;;;;5018410;28;20561;-81
2021/12/29 10:51:40;;;;;;;5.33;2.60;;;11.90;1.00;12.30;99764.00;;;;5030075;28;20481;-82
2021/12/29 10:54:13;;;;;;;4.57;2.33;;;11.80;1.00;12.30;99775.00;;;;5024738;28;21102;-81
2021/12/29 10:56:46;;;;;;;4.30;2.50;;;11.90;1.00;12.30;99778.00;;;;5029450;28;20507;-81
2021/12/29 10:59:23;;;;;;;5.87;2.40;;;11.90;1.00;12.30;99789.00;;;;5049118;28;20553;-80
2021/12/29 11:01:53;;;;;;;3.77;2.63;;;11.90;1.00;12.30;99787.00;;;;5054513;28;20880;-80
2021/12/29 11:04:24;;;;;;;6.07;3.40;;;11.90;1.00;12.30;99784.00;;;;5028708;28;21114;-83
2021/12/29 11:06:56;;;;;;;3.60;1.90;;;12.00;1.00;12.20;99798.00;;;;5030458;28;20477;-84
2021/12/29 11:09:31;;;;;;;4.77;2.80;;;11.90;1.00;12.20;99787.00;;;;5063493;28;20484;-81
2021/12/29 11:12:09;;;;;;;4.97;2.77;;;11.80;1.00;12.30;99775.00;;;;5033290;28;20449;-81
2021/12/29 11:14:42;;;;;;;4.00;2.70;;;11.90;1.00;12.50;99791.00;;;;5044861;28;20441;-84
2021/12/29 11:17:15;;;;;;;4.10;2.37;;;12.00;1.00;12.80;99785.00;;;;5039601;28;20438;-85
2021/12/29 11:19:52;;;;;;;4.73;2.50;;;12.30;1.00;13.00;99780.00;;;;5043086;28;20473;-82